Time;durP1;ratioP1;P1;durP2;ratioP2;P2;SDS_P1;SDS_P2;PMS_P1;PMS_P2;Temp;Humidity;BMP_temperature;BMP_pressure;BME280_temperature;BME280_humidity;BME280_pressure;Samples;Min_cycle;Max_cycle;Signal;HPM_P1;HPM_P2
2021/03/21 00:02:00;;;;;;;1999.90;999.90;;;7.10;99.90;;;;;;4958708;29;20246;-78
2021/03/21 00:04:26;;;;;;;1999.90;999.90;;;7.10;99.90;;;;;;4958373;28;20184;-80
2021/03/21 00:06:51;;;;;;;1999.90;999.90;;;7.00;99.90;;;;;;4957760;29;20404;-78
2021/03/21 00:09:18;;;;;;;1999.90;999.90;;;7.00;99.90;;;;;;4940433;29;20168;-80
2021/03/21 00:11:44;;;;;;;1999.90;999.90;;;7.10;99.90;;;;;;4958577;29;20583;-80
2021/03/21 00:14:10;;;;;;;1999.90;999.90;;;7.10;99.90;;;;;;4958104;28;20188;-80
2021/03/21 00:16:36;;;;;;;1999.90;999.90;;;7.10;99.90;;;;;;4941415;29;20164;-80
2021/03/21 00:19:04;;;;;;;1999.90;999.90;;;7.10;99.90;;;;;;4958855;29;20188;-80
2021/03/21 00:21:30;;;;;;;1999.90;999.90;;;7.10;99.90;;;;;;4959044;29;20535;-79
2021/03/21 00:23:56;;;;;;;1999.90;999.90;;;7.10;99.90;;;;;;4957235;28;20188;-80
2021/03/21 00:26:22;;;;;;;1999.90;999.90;;;7.00;99.90;;;;;;4958389;29;20206;-81
2021/03/21 00:28:49;;;;;;;1999.90;999.90;;;7.00;99.90;;;;;;4958329;29;20175;-80
2021/03/21 00:31:15;;;;;;;1999.90;999.90;;;7.00;99.90;;;;;;4941464;29;20462;-80
2021/03/21 00:33:41;;;;;;;1999.90;999.90;;;7.10;99.90;;;;;;4958349;28;20683;-80
2021/03/21 00:36:10;;;;;;;1999.90;999.90;;;7.10;99.90;;;;;;4958572;29;20226;-80
2021/03/21 00:38:39;;;;;;;1999.90;999.90;;;6.90;99.90;;;;;;4940865;29;20258;-80
2021/03/21 00:41:07;;;;;;;1999.90;999.90;;;6.90;99.90;;;;;;4958195;29;20215;-80
2021/03/21 00:43:35;;;;;;;1999.90;999.90;;;6.90;99.90;;;;;;4958086;28;20191;-80
2021/03/21 00:46:02;;;;;;;1999.90;999.90;;;7.00;99.90;;;;;;4957409;29;20191;-80
2021/03/21 00:48:35;;;;;;;1999.90;999.90;;;7.00;99.90;;;;;;4958867;29;20179;-80
2021/03/21 00:51:05;;;;;;;1999.90;999.90;;;7.00;99.90;;;;;;4958804;29;20163;-79
2021/03/21 00:53:31;;;;;;;1999.90;999.90;;;7.00;99.90;;;;;;4958642;28;20271;-80
2021/03/21 00:55:57;;;;;;;1999.90;999.90;;;7.00;99.90;;;;;;4957910;29;20188;-80
2021/03/21 00:58:23;;;;;;;1999.90;999.90;;;7.00;99.90;;;;;;4958009;29;20273;-80
2021/03/21 01:00:54;;;;;;;1999.90;999.90;;;6.90;99.90;;;;;;4958361;29;20415;-79
2021/03/21 01:03:21;;;;;;;1999.90;999.90;;;6.80;99.90;;;;;;4958542;28;20426;-80
2021/03/21 01:05:48;;;;;;;1999.90;999.90;;;6.90;99.90;;;;;;4958902;29;20180;-80
2021/03/21 01:08:35;;;;;;;1999.90;999.90;;;6.90;99.90;;;;;;4941317;29;20182;-80
2021/03/21 01:11:05;;;;;;;1999.90;999.90;;;6.80;99.90;;;;;;4958230;29;20179;-80
2021/03/21 01:13:32;;;;;;;1999.90;999.90;;;6.80;99.90;;;;;;4958016;28;20195;-80
2021/03/21 01:15:59;;;;;;;1999.90;999.90;;;6.80;99.90;;;;;;4958507;29;20188;-80
2021/03/21 01:18:33;;;;;;;1999.90;999.90;;;6.70;99.90;;;;;;4940689;29;20328;-80
2021/03/21 01:21:00;;;;;;;1999.90;999.90;;;6.70;99.90;;;;;;4958058;29;20148;-80
2021/03/21 01:23:26;;;;;;;1999.90;999.90;;;6.70;99.90;;;;;;4940244;29;20191;-80
2021/03/21 01:25:52;;;;;;;1999.90;999.90;;;6.70;99.90;;;;;;4958596;28;20168;-80
2021/03/21 01:28:21;;;;;;;1999.90;999.90;;;6.60;99.90;;;;;;4961768;29;20268;-80
2021/03/21 01:30:48;;;;;;;1999.90;999.90;;;6.60;99.90;;;;;;4944221;29;20171;-80
2021/03/21 01:33:14;;;;;;;1999.90;999.90;;;6.60;99.90;;;;;;4943888;29;20199;-80
2021/03/21 01:35:40;;;;;;;1999.90;999.90;;;6.60;99.90;;;;;;4944097;29;20214;-80
2021/03/21 01:38:05;;;;;;;1999.90;999.90;;;6.60;99.90;;;;;;4961169;29;20240;-79
2021/03/21 01:40:36;;;;;;;1999.90;999.90;;;6.50;99.90;;;;;;4960878;29;20171;-80
2021/03/21 01:43:02;;;;;;;1999.90;999.90;;;6.50;99.90;;;;;;4960332;28;20152;-80
2021/03/21 01:45:51;;;;;;;1999.90;999.90;;;6.50;99.90;;;;;;4960788;29;20551;-80
2021/03/21 01:48:33;;;;;;;1999.90;999.90;;;6.40;99.90;;;;;;4961226;29;20148;-80
2021/03/21 01:51:27;;;;;;;1999.90;999.90;;;6.40;99.90;;;;;;4960625;29;20168;-79
2021/03/21 01:53:56;;;;;;;1999.90;999.90;;;6.40;99.90;;;;;;4960500;28;20187;-80
2021/03/21 01:56:25;;;;;;;1999.90;999.90;;;6.40;99.90;;;;;;4960181;29;20277;-79
2021/03/21 01:58:59;;;;;;;1999.90;999.90;;;6.40;99.90;;;;;;4960274;29;20192;-80
2021/03/21 02:01:28;;;;;;;1999.90;999.90;;;6.30;99.90;;;;;;4961050;29;20536;-80
2021/03/21 02:03:53;;;;;;;1999.90;999.90;;;6.30;99.90;;;;;;4943279;29;20188;-80
2021/03/21 02:06:34;;;;;;;1999.90;999.90;;;6.30;99.90;;;;;;4960909;29;20564;-80
2021/03/21 02:09:10;;;;;;;1999.90;999.90;;;6.30;99.90;;;;;;4943902;29;20403;-79
2021/03/21 02:11:42;;;;;;;1999.90;999.90;;;6.40;99.90;;;;;;4960365;29;20567;-80
2021/03/21 02:14:32;;;;;;;1999.90;999.90;;;6.40;99.90;;;;;;4960341;28;20219;-80
2021/03/21 02:16:57;;;;;;;1999.90;999.90;;;6.40;99.90;;;;;;4960079;29;20148;-80
2021/03/21 02:19:48;;;;;;;1999.90;999.90;;;6.40;99.90;;;;;;4960173;29;20665;-80
2021/03/21 02:22:28;;;;;;;1999.90;999.90;;;6.40;99.90;;;;;;4942842;29;20236;-80
2021/03/21 02:25:28;;;;;;;1999.90;999.90;;;6.40;99.90;;;;;;4959758;28;20191;-80
2021/03/21 02:28:43;;;;;;;1999.90;999.90;;;6.40;99.90;;;;;;4960846;29;20187;-80
2021/03/21 02:31:27;;;;;;;1999.90;999.90;;;6.40;99.90;;;;;;4901772;29;20190;-80
2021/03/21 02:34:02;;;;;;;1999.90;999.90;;;6.30;99.90;;;;;;4938610;29;20227;-80
2021/03/21 02:37:08;;;;;;;1999.90;999.90;;;6.30;99.90;;;;;;4960438;28;20160;-79
2021/03/21 02:39:58;;;;;;;1999.90;999.90;;;6.30;99.90;;;;;;4960171;29;20615;-80
2021/03/21 02:42:35;;;;;;;1999.90;999.90;;;6.30;99.90;;;;;;4949824;29;20191;-80
2021/03/21 02:45:14;;;;;;;1999.90;999.90;;;6.30;99.90;;;;;;4960046;28;20275;-80
2021/03/21 02:47:42;;;;;;;1999.90;999.90;;;6.20;99.90;;;;;;4960530;29;20156;-80
2021/03/21 02:50:14;;;;;;;1999.90;999.90;;;6.30;99.90;;;;;;4960678;29;20204;-80
2021/03/21 02:52:51;;;;;;;1999.90;999.90;;;6.20;99.90;;;;;;4959791;29;20160;-80
2021/03/21 02:55:33;;;;;;;1999.90;999.90;;;6.20;99.90;;;;;;5042598;23;20285;-83
2021/03/21 02:58:41;;;;;;;1999.90;999.90;;;6.20;99.90;;;;;;4984418;28;20183;-82
2021/03/21 03:01:21;;;;;;;1999.90;999.90;;;6.20;99.90;;;;;;4984283;28;20241;-82
2021/03/21 03:03:52;;;;;;;1999.90;999.90;;;6.20;99.90;;;;;;4981532;28;20183;-82
2021/03/21 03:06:39;;;;;;;1999.90;999.90;;;6.20;99.90;;;;;;4984634;28;20156;-82
2021/03/21 03:09:19;;;;;;;1999.90;999.90;;;6.20;99.90;;;;;;4984411;28;20171;-82
2021/03/21 03:12:00;;;;;;;1999.90;999.90;;;6.10;99.90;;;;;;4984979;28;20275;-82
2021/03/21 03:14:35;;;;;;;1999.90;999.90;;;6.10;99.90;;;;;;4983492;28;20224;-82
2021/03/21 03:17:30;;;;;;;1999.90;999.90;;;6.20;99.90;;;;;;4984535;28;20209;-82
2021/03/21 03:20:16;;;;;;;1999.90;999.90;;;6.20;99.90;;;;;;4984581;28;20213;-82
2021/03/21 03:23:00;;;;;;;1999.90;999.90;;;6.10;99.90;;;;;;4983328;28;20219;-82
2021/03/21 03:25:29;;;;;;;1999.90;999.90;;;6.20;99.90;;;;;;4980668;28;20167;-84
2021/03/21 03:28:06;;;;;;;1999.90;999.90;;;6.20;99.90;;;;;;4982880;28;20194;-82
2021/03/21 03:30:59;;;;;;;1999.90;999.90;;;6.20;99.90;;;;;;4966039;28;20155;-82
2021/03/21 03:33:25;;;;;;;1999.90;999.90;;;6.10;99.90;;;;;;4966027;28;20225;-82
2021/03/21 03:35:51;;;;;;;1999.90;999.90;;;6.10;99.90;;;;;;4983662;28;20179;-82
2021/03/21 03:38:17;;;;;;;1999.90;999.90;;;6.10;99.90;;;;;;4983577;28;20274;-82
2021/03/21 03:40:45;;;;;;;1999.90;999.90;;;6.10;99.90;;;;;;4983688;28;20168;-81
2021/03/21 03:43:39;;;;;;;1999.90;999.90;;;6.10;99.90;;;;;;4983981;28;20185;-81
2021/03/21 03:46:05;;;;;;;1999.90;999.90;;;6.10;99.90;;;;;;4983890;28;20144;-81
2021/03/21 03:48:57;;;;;;;1999.90;999.90;;;6.20;99.90;;;;;;4982345;28;20512;-82
2021/03/21 03:51:29;;;;;;;1999.90;999.90;;;6.20;99.90;;;;;;4984657;28;20174;-82
2021/03/21 03:54:08;;;;;;;1999.90;999.90;;;6.10;99.90;;;;;;4966966;28;20183;-82
2021/03/21 03:56:58;;;;;;;1999.90;999.90;;;6.10;99.90;;;;;;4984084;28;20190;-82
2021/03/21 03:59:52;;;;;;;1999.90;999.90;;;6.10;99.90;;;;;;4984110;28;20179;-82
2021/03/21 04:02:23;;;;;;;1999.90;999.90;;;6.00;99.90;;;;;;4984871;28;20159;-82
2021/03/21 04:05:01;;;;;;;1999.90;999.90;;;6.10;99.90;;;;;;4984339;28;20222;-82
2021/03/21 04:07:38;;;;;;;1999.90;999.90;;;6.10;99.90;;;;;;4983861;28;20163;-82
2021/03/21 04:10:16;;;;;;;1999.90;999.90;;;6.00;99.90;;;;;;4966676;28;20186;-82
2021/03/21 04:12:50;;;;;;;1999.90;999.90;;;6.00;99.90;;;;;;4984039;28;20205;-82
2021/03/21 04:15:21;;;;;;;1999.90;999.90;;;6.10;99.90;;;;;;4984170;28;20158;-82
2021/03/21 04:18:00;;;;;;;1999.90;999.90;;;6.10;99.90;;;;;;4983678;28;20171;-82
2021/03/21 04:20:38;;;;;;;1999.90;999.90;;;6.10;99.90;;;;;;4984042;28;20152;-82
2021/03/21 04:23:31;;;;;;;1999.90;999.90;;;6.10;99.90;;;;;;4966854;28;20167;-82
2021/03/21 04:26:02;;;;;;;1999.90;999.90;;;6.10;99.90;;;;;;4983253;28;20159;-81
2021/03/21 04:28:51;;;;;;;1999.90;999.90;;;6.10;99.90;;;;;;4983311;28;20155;-82
2021/03/21 04:31:18;;;;;;;1999.90;999.90;;;6.10;99.90;;;;;;4964948;28;20175;-82
2021/03/21 04:33:56;;;;;;;1999.90;999.90;;;6.20;99.90;;;;;;4982569;28;20265;-82
2021/03/21 04:36:28;;;;;;;1999.90;999.90;;;6.20;99.90;;;;;;4982167;28;20163;-82
2021/03/21 04:39:05;;;;;;;1999.90;999.90;;;6.10;99.90;;;;;;4980471;28;20186;-81
2021/03/21 04:41:50;;;;;;;1999.90;999.90;;;6.20;99.90;;;;;;4979945;28;20148;-81
2021/03/21 04:44:28;;;;;;;1999.90;999.90;;;6.10;99.90;;;;;;4979106;28;20266;-81
2021/03/21 04:47:02;;;;;;;1999.90;999.90;;;6.00;99.90;;;;;;4961604;28;20534;-82
2021/03/21 04:49:27;;;;;;;1999.90;999.90;;;6.10;99.90;;;;;;4981692;28;20151;-82
2021/03/21 04:52:05;;;;;;;1999.90;999.90;;;6.10;99.90;;;;;;4980657;28;20198;-82
2021/03/21 04:54:35;;;;;;;1999.90;999.90;;;6.10;99.90;;;;;;4981459;28;20199;-83
2021/03/21 04:57:29;;;;;;;1999.90;999.90;;;6.10;99.90;;;;;;4963716;28;20159;-81
2021/03/21 04:59:55;;;;;;;1999.90;999.90;;;6.10;99.90;;;;;;4983739;28;20152;-81
2021/03/21 05:02:27;;;;;;;1999.90;999.90;;;6.10;99.90;;;;;;4988355;28;20174;-81
2021/03/21 05:05:01;;;;;;;1999.90;999.90;;;6.10;99.90;;;;;;4988697;28;20195;-81
2021/03/21 05:07:31;;;;;;;1999.90;999.90;;;6.00;99.90;;;;;;4989267;28;20174;-81
2021/03/21 05:10:15;;;;;;;1999.90;999.90;;;6.10;99.90;;;;;;4988569;28;20224;-81
2021/03/21 05:12:45;;;;;;;1999.90;999.90;;;6.00;99.90;;;;;;4970451;28;20639;-81
2021/03/21 05:15:29;;;;;;;1999.90;999.90;;;6.00;99.90;;;;;;4985127;28;20186;-81
2021/03/21 05:18:27;;;;;;;1999.90;999.90;;;6.00;99.90;;;;;;4985265;28;20590;-81
2021/03/21 05:21:06;;;;;;;1999.90;999.90;;;6.10;99.90;;;;;;4952559;28;20278;-82
2021/03/21 05:23:41;;;;;;;1999.90;999.90;;;6.00;99.90;;;;;;4986075;28;20705;-81
2021/03/21 05:26:30;;;;;;;1999.90;999.90;;;6.00;99.90;;;;;;4969754;28;20670;-84
2021/03/21 05:29:12;;;;;;;1999.90;999.90;;;6.00;99.90;;;;;;4969921;28;20159;-83
2021/03/21 05:31:38;;;;;;;1999.90;999.90;;;6.00;99.90;;;;;;4986218;28;20155;-83
2021/03/21 05:34:05;;;;;;;1999.90;999.90;;;6.00;99.90;;;;;;4984773;28;20187;-83
2021/03/21 05:37:00;;;;;;;1999.90;999.90;;;6.00;99.90;;;;;;4984371;28;20410;-83
2021/03/21 05:39:47;;;;;;;1999.90;999.90;;;6.00;99.90;;;;;;4985803;28;20246;-84
2021/03/21 05:42:27;;;;;;;1999.90;999.90;;;6.00;99.90;;;;;;4986293;28;20151;-83
2021/03/21 05:45:17;;;;;;;1999.90;999.90;;;6.00;99.90;;;;;;4986623;28;20275;-83
2021/03/21 05:48:03;;;;;;;1999.90;999.90;;;6.00;99.90;;;;;;4986512;28;20175;-83
2021/03/21 05:50:53;;;;;;;1999.90;999.90;;;6.00;99.90;;;;;;4986421;28;20182;-84
2021/03/21 05:53:31;;;;;;;1999.90;999.90;;;6.00;99.90;;;;;;4968164;28;20209;-83
2021/03/21 05:56:27;;;;;;;1999.90;999.90;;;6.00;99.90;;;;;;4968529;28;20186;-83
2021/03/21 05:59:31;;;;;;;1999.90;999.90;;;6.00;99.90;;;;;;4985355;28;20206;-83
2021/03/21 06:02:05;;;;;;;1999.90;999.90;;;6.00;99.90;;;;;;4968606;28;20159;-83
2021/03/21 06:04:54;;;;;;;1999.90;999.90;;;6.00;99.90;;;;;;4968374;28;20183;-83
2021/03/21 06:07:57;;;;;;;1999.90;999.90;;;6.10;99.90;;;;;;4987067;28;20186;-84
2021/03/21 06:10:41;;;;;;;1999.90;999.90;;;6.10;99.90;;;;;;4986255;28;20232;-84
2021/03/21 06:13:19;;;;;;;1999.90;999.90;;;6.10;99.90;;;;;;4981847;28;20207;-83
2021/03/21 06:15:56;;;;;;;1999.90;999.90;;;6.10;99.90;;;;;;4965300;28;20159;-83
2021/03/21 06:18:35;;;;;;;1999.90;999.90;;;6.10;99.90;;;;;;4966081;28;20183;-81
2021/03/21 06:21:22;;;;;;;1999.90;999.90;;;6.10;99.90;;;;;;4982321;28;20147;-81
2021/03/21 06:24:18;;;;;;;1999.90;999.90;;;6.10;99.90;;;;;;4983654;28;20190;-81
2021/03/21 06:26:53;;;;;;;1999.90;999.90;;;6.20;99.90;;;;;;4983593;28;20175;-81
2021/03/21 06:29:55;;;;;;;1999.90;999.90;;;6.10;99.90;;;;;;4966840;28;20178;-81
2021/03/21 06:32:45;;;;;;;1999.90;999.90;;;6.20;99.90;;;;;;4965868;28;20213;-81
2021/03/21 06:35:25;;;;;;;1999.90;999.90;;;6.20;99.90;;;;;;4965517;28;20195;-81
2021/03/21 06:38:20;;;;;;;1999.90;999.90;;;6.20;99.90;;;;;;4966023;28;20186;-81
2021/03/21 06:41:19;;;;;;;1999.90;999.90;;;6.20;99.90;;;;;;4957499;28;20175;-84
2021/03/21 06:44:04;;;;;;;1999.90;999.90;;;6.20;99.90;;;;;;4984393;28;20194;-82
2021/03/21 06:46:52;;;;;;;1999.90;999.90;;;6.20;99.90;;;;;;4967074;28;20183;-82
2021/03/21 06:49:27;;;;;;;1999.90;999.90;;;6.30;99.90;;;;;;4966701;28;20246;-82
2021/03/21 06:52:19;;;;;;;1999.90;999.90;;;6.30;99.90;;;;;;4967399;28;20158;-82
2021/03/21 06:54:56;;;;;;;1999.90;999.90;;;6.30;99.90;;;;;;4966403;28;20273;-82
2021/03/21 06:57:48;;;;;;;1999.90;999.90;;;6.20;99.90;;;;;;4966596;28;20262;-82
2021/03/21 07:00:52;;;;;;;1999.90;999.90;;;6.30;99.90;;;;;;4930196;28;20207;-82
2021/03/21 07:03:59;;;;;;;1999.90;999.90;;;6.30;99.90;;;;;;4966722;28;20194;-82
2021/03/21 07:07:02;;;;;;;1999.90;999.90;;;6.40;99.90;;;;;;4957753;28;20179;-82
2021/03/21 07:09:58;;;;;;;1999.90;999.90;;;6.40;99.90;;;;;;4967405;28;20263;-83
2021/03/21 07:12:56;;;;;;;1999.90;999.90;;;6.40;99.90;;;;;;4966913;28;20163;-84
2021/03/21 07:15:43;;;;;;;1999.90;999.90;;;6.40;99.90;;;;;;4966519;28;20167;-84
2021/03/21 07:18:30;;;;;;;1999.90;999.90;;;6.40;99.90;;;;;;4966892;28;20207;-84
2021/03/21 07:21:38;;;;;;;1999.90;999.90;;;6.40;99.90;;;;;;4966955;28;20250;-84
2021/03/21 07:24:44;;;;;;;1999.90;999.90;;;6.30;99.90;;;;;;4921072;28;20191;-85
2021/03/21 07:27:37;;;;;;;1999.90;999.90;;;6.40;99.90;;;;;;4967661;28;20280;-85
2021/03/21 07:30:07;;;;;;;1999.90;999.90;;;6.40;99.90;;;;;;4966740;28;20174;-84
2021/03/21 07:33:12;;;;;;;1999.90;999.90;;;6.50;99.90;;;;;;4984160;28;20170;-85
2021/03/21 07:35:53;;;;;;;1999.90;999.90;;;6.60;99.90;;;;;;4967875;28;20155;-84
2021/03/21 07:38:52;;;;;;;1999.90;999.90;;;6.70;99.90;;;;;;4984329;28;20187;-85
2021/03/21 07:41:41;;;;;;;1999.90;999.90;;;6.90;99.90;;;;;;4968161;28;20713;-84
2021/03/21 07:44:54;;;;;;;1999.90;999.90;;;7.00;99.90;;;;;;4967754;28;20528;-85
2021/03/21 07:47:44;;;;;;;1999.90;999.90;;;7.20;99.90;;;;;;4941649;28;20227;-84
2021/03/21 07:50:10;;;;;;;1999.90;999.90;;;7.20;99.90;;;;;;4984505;28;20168;-83
2021/03/21 07:52:47;;;;;;;1999.90;999.90;;;7.30;99.90;;;;;;4986476;28;20167;-83
2021/03/21 07:55:23;;;;;;;1999.90;999.90;;;7.20;99.90;;;;;;4967694;28;20207;-84
2021/03/21 07:57:49;;;;;;;1999.90;999.90;;;7.30;99.90;;;;;;4968794;28;20191;-83
2021/03/21 08:00:15;;;;;;;1999.90;999.90;;;7.30;99.90;;;;;;4968720;28;20231;-84
2021/03/21 08:02:41;;;;;;;1999.90;999.90;;;7.40;99.90;;;;;;4968505;28;20187;-83
2021/03/21 08:05:16;;;;;;;1999.90;999.90;;;7.40;99.90;;;;;;4971932;28;20202;-83
2021/03/21 08:07:45;;;;;;;1999.90;999.90;;;7.40;99.90;;;;;;4990311;28;20214;-83
2021/03/21 08:10:30;;;;;;;1999.90;999.90;;;7.40;99.90;;;;;;4972467;28;20174;-85
2021/03/21 08:13:02;;;;;;;1999.90;999.90;;;7.40;99.90;;;;;;4966559;28;20183;-83
2021/03/21 08:15:32;;;;;;;1999.90;999.90;;;7.40;99.90;;;;;;4984019;28;20179;-83
2021/03/21 08:18:06;;;;;;;1999.90;999.90;;;7.40;99.90;;;;;;4965410;28;20187;-83
2021/03/21 08:20:38;;;;;;;1999.90;999.90;;;7.40;99.90;;;;;;4964729;28;20706;-84
2021/03/21 08:23:23;;;;;;;1999.90;999.90;;;7.40;99.90;;;;;;4963560;28;20159;-84
2021/03/21 08:25:51;;;;;;;1999.90;999.90;;;7.40;99.90;;;;;;4965220;28;20155;-83
2021/03/21 08:28:23;;;;;;;1999.90;999.90;;;7.40;99.90;;;;;;4966431;28;20225;-83
2021/03/21 08:30:58;;;;;;;1999.90;999.90;;;7.50;99.90;;;;;;4966063;28;20246;-82
2021/03/21 08:33:39;;;;;;;1999.90;999.90;;;7.70;99.90;;;;;;4966721;28;20194;-83
2021/03/21 08:36:12;;;;;;;1999.90;999.90;;;7.90;99.90;;;;;;4966410;28;20739;-83
2021/03/21 08:38:39;;;;;;;1999.90;999.90;;;8.00;99.90;;;;;;4984204;28;20202;-83
2021/03/21 08:41:07;;;;;;;1999.90;999.90;;;7.90;99.90;;;;;;4966484;28;20171;-83
2021/03/21 08:43:35;;;;;;;1999.90;999.90;;;8.00;99.90;;;;;;4983850;28;20206;-82
2021/03/21 08:46:17;;;;;;;1999.90;999.90;;;7.90;99.90;;;;;;4982485;28;20159;-83
2021/03/21 08:48:44;;;;;;;1999.90;999.90;;;7.80;99.90;;;;;;4965591;28;20218;-82
2021/03/21 08:51:12;;;;;;;1999.90;999.90;;;7.80;99.90;;;;;;4982215;28;20175;-82
2021/03/21 08:53:52;;;;;;;1999.90;999.90;;;7.90;99.90;;;;;;4983407;28;20190;-83
2021/03/21 08:56:26;;;;;;;1999.90;999.90;;;8.00;99.90;;;;;;5088128;23;20248;-79
2021/03/21 08:59:09;;;;;;;1999.90;999.90;;;8.00;99.90;;;;;;4997092;28;20174;-79
2021/03/21 09:01:36;;;;;;;1999.90;999.90;;;7.80;99.90;;;;;;4980115;28;20167;-79
2021/03/21 09:04:17;;;;;;;1999.90;999.90;;;7.70;99.90;;;;;;4996985;28;20187;-79
2021/03/21 09:06:47;;;;;;;1999.90;999.90;;;7.60;99.90;;;;;;4979727;28;20550;-79
2021/03/21 09:09:23;;;;;;;1999.90;999.90;;;7.70;99.90;;;;;;4997020;28;20619;-79
2021/03/21 09:11:54;;;;;;;1999.90;999.90;;;7.70;99.90;;;;;;4980144;28;20169;-80
2021/03/21 09:14:24;;;;;;;1999.90;999.90;;;7.60;99.90;;;;;;4979602;28;20574;-79
2021/03/21 09:16:59;;;;;;;1999.90;999.90;;;7.60;99.90;;;;;;4996750;28;20542;-78
2021/03/21 09:19:33;;;;;;;1999.90;999.90;;;7.70;99.90;;;;;;4996896;28;20660;-78
2021/03/21 09:22:31;;;;;;;1999.90;999.90;;;7.90;99.90;;;;;;4979775;28;20193;-79
2021/03/21 09:25:27;;;;;;;1999.90;999.90;;;8.00;99.90;;;;;;4997464;28;20238;-79
2021/03/21 09:27:55;;;;;;;1999.90;999.90;;;8.20;99.90;;;;;;4979124;28;20170;-79
2021/03/21 09:30:23;;;;;;;1999.90;999.90;;;8.20;99.90;;;;;;4980331;28;20608;-79
2021/03/21 09:32:56;;;;;;;1999.90;999.90;;;8.30;99.90;;;;;;4996875;28;20213;-79
2021/03/21 09:35:43;;;;;;;1999.90;999.90;;;8.50;99.90;;;;;;4979579;28;20163;-79
2021/03/21 09:38:21;;;;;;;1999.90;999.90;;;8.60;99.90;;;;;;4996947;28;20709;-79
2021/03/21 09:40:55;;;;;;;1999.90;999.90;;;8.60;99.90;;;;;;4997022;28;20151;-79
2021/03/21 09:43:27;;;;;;;1999.90;999.90;;;8.60;99.90;;;;;;4979272;28;20190;-79
2021/03/21 09:46:12;;;;;;;1999.90;999.90;;;8.60;99.90;;;;;;4997153;28;20609;-79
2021/03/21 09:49:05;;;;;;;1999.90;999.90;;;8.50;99.90;;;;;;5000465;28;20158;-79
2021/03/21 09:51:58;;;;;;;1999.90;999.90;;;8.50;99.90;;;;;;5000395;28;20148;-79
2021/03/21 09:54:32;;;;;;;1999.90;999.90;;;8.30;99.90;;;;;;4982541;28;20670;-80
2021/03/21 09:57:19;;;;;;;1999.90;999.90;;;8.30;99.90;;;;;;5000661;28;20175;-81
2021/03/21 09:59:55;;;;;;;1999.90;999.90;;;8.30;99.90;;;;;;5000097;28;20155;-79
2021/03/21 10:02:30;;;;;;;1999.90;999.90;;;8.20;99.90;;;;;;4982114;28;20667;-79
2021/03/21 10:05:05;;;;;;;1999.90;999.90;;;8.20;99.90;;;;;;4981702;28;20558;-79
2021/03/21 10:07:40;;;;;;;1999.90;999.90;;;8.20;99.90;;;;;;4999690;28;20506;-81
2021/03/21 10:10:16;;;;;;;1999.90;999.90;;;8.10;99.90;;;;;;5000138;28;20234;-79
2021/03/21 10:12:44;;;;;;;1999.90;999.90;;;8.10;99.90;;;;;;4999363;28;20525;-80
2021/03/21 10:15:24;;;;;;;1999.90;999.90;;;8.00;99.90;;;;;;4999531;28;20550;-79
2021/03/21 10:18:00;;;;;;;1999.90;999.90;;;7.80;99.90;;;;;;4999963;28;20269;-82
2021/03/21 10:21:09;;;;;;;1999.90;999.90;;;7.70;99.90;;;;;;4999807;28;20147;-82
2021/03/21 10:23:59;;;;;;;1999.90;999.90;;;7.70;99.90;;;;;;4999500;28;20193;-81
2021/03/21 10:26:31;;;;;;;1999.90;999.90;;;7.60;99.90;;;;;;4954451;28;20198;-81
2021/03/21 10:29:09;;;;;;;1999.90;999.90;;;7.80;99.90;;;;;;4999881;28;20155;-81
2021/03/21 10:31:39;;;;;;;1999.90;999.90;;;8.00;99.90;;;;;;4981966;28;20260;-80
2021/03/21 10:34:07;;;;;;;1999.90;999.90;;;8.20;99.90;;;;;;4999783;28;20186;-81
2021/03/21 10:36:40;;;;;;;1999.90;999.90;;;8.50;99.90;;;;;;4999091;28;20249;-81
2021/03/21 10:39:11;;;;;;;1999.90;999.90;;;8.60;99.90;;;;;;4982604;28;20186;-81
2021/03/21 10:42:03;;;;;;;1999.90;999.90;;;8.80;99.90;;;;;;4983388;28;20154;-82
2021/03/21 10:44:34;;;;;;;1999.90;999.90;;;8.80;99.90;;;;;;4999992;28;20197;-82
2021/03/21 10:47:20;;;;;;;1999.90;999.90;;;8.80;99.90;;;;;;4982957;28;20205;-82
2021/03/21 10:49:49;;;;;;;1999.90;999.90;;;8.80;99.90;;;;;;4982972;28;20217;-82
2021/03/21 10:52:22;;;;;;;1999.90;999.90;;;8.70;99.90;;;;;;4999808;28;20155;-81
2021/03/21 10:55:08;;;;;;;1999.90;999.90;;;8.50;99.90;;;;;;4999376;28;20229;-81
2021/03/21 10:57:43;;;;;;;1999.90;999.90;;;8.40;99.90;;;;;;4968447;28;20211;-82
2021/03/21 11:00:12;;;;;;;1999.90;999.90;;;8.40;99.90;;;;;;4999181;28;20237;-82
2021/03/21 11:02:41;;;;;;;1999.90;999.90;;;8.40;99.90;;;;;;4981788;28;20163;-82
2021/03/21 11:05:28;;;;;;;1999.90;999.90;;;8.40;99.90;;;;;;4999044;28;20278;-81
2021/03/21 11:08:17;;;;;;;1999.90;999.90;;;8.40;99.90;;;;;;4999478;28;20175;-82
2021/03/21 11:10:51;;;;;;;1999.90;999.90;;;8.40;99.90;;;;;;4982301;28;20170;-82
2021/03/21 11:13:35;;;;;;;1999.90;999.90;;;8.40;99.90;;;;;;4997872;28;20553;-80
2021/03/21 11:16:27;;;;;;;1999.90;999.90;;;8.40;99.90;;;;;;4997397;28;20154;-80
2021/03/21 11:19:04;;;;;;;1999.90;999.90;;;8.30;99.90;;;;;;4976810;28;20198;-81
2021/03/21 11:21:36;;;;;;;1999.90;999.90;;;8.30;99.90;;;;;;4979066;28;20190;-81
2021/03/21 11:24:06;;;;;;;1999.90;999.90;;;8.20;99.90;;;;;;4996973;28;20182;-79
2021/03/21 11:26:38;;;;;;;1999.90;999.90;;;8.20;99.90;;;;;;4996500;28;20637;-80
2021/03/21 11:29:09;;;;;;;1999.90;999.90;;;8.20;99.90;;;;;;4979308;28;20681;-80
2021/03/21 11:31:48;;;;;;;1999.90;999.90;;;8.30;99.90;;;;;;4980583;28;20249;-81
2021/03/21 11:34:27;;;;;;;1999.90;999.90;;;8.40;99.90;;;;;;4981908;28;20260;-81
2021/03/21 11:37:26;;;;;;;1999.90;999.90;;;8.50;99.90;;;;;;4981466;28;20166;-81
2021/03/21 11:40:11;;;;;;;1999.90;999.90;;;8.60;99.90;;;;;;4980300;28;20258;-81
2021/03/21 11:42:40;;;;;;;1999.90;999.90;;;8.70;99.90;;;;;;4979781;28;20654;-81
2021/03/21 11:45:20;;;;;;;1999.90;999.90;;;8.50;99.90;;;;;;4998207;28;20257;-82
2021/03/21 11:47:53;;;;;;;1999.90;999.90;;;8.40;99.90;;;;;;4981298;28;20201;-82
2021/03/21 11:50:36;;;;;;;1999.90;999.90;;;8.30;99.90;;;;;;4978652;28;20634;-81
2021/03/21 11:53:05;;;;;;;1999.90;999.90;;;8.30;99.90;;;;;;4980491;28;20177;-80
2021/03/21 11:55:36;;;;;;;1999.90;999.90;;;8.40;99.90;;;;;;4997953;28;20182;-81
2021/03/21 11:58:05;;;;;;;1999.90;999.90;;;8.40;99.90;;;;;;4980377;28;20213;-81
2021/03/21 12:00:32;;;;;;;1999.90;999.90;;;8.50;99.90;;;;;;4980291;28;20166;-81
2021/03/21 12:03:23;;;;;;;1999.90;999.90;;;8.60;99.90;;;;;;4980305;28;20532;-81
2021/03/21 12:06:22;;;;;;;1999.90;999.90;;;8.70;99.90;;;;;;4998065;28;20231;-81
2021/03/21 12:08:48;;;;;;;1999.90;999.90;;;8.80;99.90;;;;;;4997712;28;20169;-82
2021/03/21 12:11:29;;;;;;;1999.90;999.90;;;9.00;99.90;;;;;;4997709;28;20249;-82
2021/03/21 12:14:15;;;;;;;1999.90;999.90;;;9.20;99.90;;;;;;4997381;28;20692;-81
2021/03/21 12:16:44;;;;;;;1999.90;999.90;;;9.30;99.90;;;;;;4980169;28;20174;-81
2021/03/21 12:19:29;;;;;;;1999.90;999.90;;;9.50;99.90;;;;;;4998091;28;20201;-82
2021/03/21 12:22:06;;;;;;;1999.90;999.90;;;9.60;99.90;;;;;;4980356;28;20197;-82
2021/03/21 12:24:34;;;;;;;1999.90;999.90;;;9.80;98.10;;;;;;4980199;28;20222;-81
2021/03/21 12:27:25;;;;;;;1999.90;999.90;;;9.80;96.80;;;;;;4980096;28;20166;-81
2021/03/21 12:29:51;;;;;;;1999.90;999.90;;;9.80;99.10;;;;;;4980258;28;20626;-82
2021/03/21 12:32:17;;;;;;;1999.90;999.90;;;9.70;99.50;;;;;;4997295;28;20166;-81
2021/03/21 12:34:49;;;;;;;1999.90;999.90;;;9.60;97.40;;;;;;4980199;28;20193;-81
2021/03/21 12:37:35;;;;;;;1999.90;999.90;;;9.50;98.20;;;;;;4979927;28;20159;-81
2021/03/21 12:40:10;;;;;;;1999.90;999.90;;;9.50;98.80;;;;;;4997701;28;20155;-82
2021/03/21 12:42:51;;;;;;;1999.90;999.90;;;9.40;98.40;;;;;;4980156;28;20166;-81
2021/03/21 12:45:35;;;;;;;1999.90;999.90;;;9.20;98.30;;;;;;4980032;28;20166;-82
2021/03/21 12:48:06;;;;;;;1999.90;999.90;;;9.20;99.30;;;;;;4981027;28;20166;-81
2021/03/21 12:50:49;;;;;;;1999.90;999.90;;;9.20;99.10;;;;;;4980274;28;20162;-80
2021/03/21 12:53:23;;;;;;;1999.90;999.90;;;9.20;99.80;;;;;;4980020;28;20186;-81
2021/03/21 12:55:50;;;;;;;1999.90;999.90;;;9.20;99.30;;;;;;4979551;28;20646;-81
2021/03/21 12:58:20;;;;;;;1999.90;999.90;;;9.30;99.90;;;;;;4998045;28;20186;-82
2021/03/21 13:00:47;;;;;;;1999.90;999.90;;;9.30;99.90;;;;;;4980999;28;20162;-81
2021/03/21 13:03:24;;;;;;;1999.90;999.90;;;9.40;99.90;;;;;;4997690;28;20186;-81